Hanover, KS (66945)

2:11 PM CST on March 01, 2017 (GMT -0600)
N0NB | | Change Station
Active Advisory: Fire Weather Warning

Elev 1318 ft 39.91 °N, 96.77 °W | Updated 3 seconds ago

Partly Cloudy
Partly Cloudy
48.8 °F
Feels Like 43 °F
N
16.0
Wind Variable Wind from NW
Gusts 23.0 mph

Today
High -- | Low -- °F
--% Chance of Precip.
Yesterday
High -- | Low -- °F
Precip. -- in
Pressure 30.15 in
Visibility 10.0 miles
Clouds Scattered Clouds 3800 ft
Mostly Cloudy 4500 ft
Overcast 5500 ft
Windchill 43 °F
Dew Point 27 °F
Humidity 42%
Rainfall 0.00 in
Snow Depth Not available.
7:00 AM 6:19 PM
Waxing Crescent, 13% visible
METAR KBIE 011955Z AUTO 31021G27KT 10SM SCT038 BKN045 OVC055 08/M03 A3015 RMK AO2 T00771030
Pressure 30.15 in
Visibility 10.0 miles
Clouds Scattered Clouds 3800 ft
Mostly Cloudy 4500 ft
Overcast 5500 ft
Windchill 43 °F
Dew Point 27 °F
Humidity 42%
Rainfall 0.00 in
Snow Depth Not available.
7:00 AM 6:19 PM
Waxing Crescent, 13% visible
METAR KBIE 011955Z AUTO 31021G27KT 10SM SCT038 BKN045 OVC055 08/M03 A3015 RMK AO2 T00771030

Get Your Daily Forecast Email!

Thanks for signing up!

Be on the lookout for a verification email in your inbox.

You'll start receiving the daily forecast at 8 AM.

×

10-Day Weather Forecast

Almanac

Astronomy

Mar. 01, 2017 Rise Set
Actual Time
Civil Twilight
Nautical Twilight
Astronomical Twilight
Moon
Length of Visible Light
Length of Day
Tomorrow will be .
, % of the Moon is Illuminated

Today's Extremes

State Highs State Lows

Community

WunderPhotos

Upload Photos

1,962,540 photos uploaded!

WunderBlog® & News

Nearby

Air Quality

  Air Quality AQ Index Pollutant
Not available.

Snow Depth

Station Depth Elevation

Earthquake Activity

City Distance Mag. Time & Date
Minimum magnitude displayed is 2.5.

Coastal Water Temperatures

Place Temperature

Stations

Nearby Weather Stations

Station Location Temp. Windchill Dew Point Humidity Wind Precip. Elev Updated Type
                   

Watches & Warnings

Fire Weather Warning
Issued: 11:04 AM CST Mar. 1, 2017 – National Weather Service

... Red flag warning in effect until 6 PM CST this evening for low
relative humidity, gusty winds and critical fuels for fire
weather zones 008, 020, 021, 034, 035, 036, 037, and 054...

The National Weather Service in Topeka has issued a red flag
warning, which is in effect until 6 PM CST this evening.

* Affected area... fire weather zones 008, 020, 021, 034, 035,
036, 037, and 054.

* Wind... northwest winds 15 to 25 mph with gusts to 30 mph or
higher.

* Humidity... minimum relative humidity is expected to range from
17 to 21 percent.

* Impacts... any fires that develop will likely spread rapidly.
Outdoor burning is not recommended.

Precautionary/preparedness actions...

A red flag warning means that critical fire weather conditions
are either occurring now... .or will shortly. A combination of
strong winds... low relative humidity... and warm temperatures can
contribute to extreme fire behavior.